createdAt,value
2023-03-22T00:01:59.421Z,4.71
2023-03-22T00:06:59.427Z,4.53
2023-03-22T00:11:59.327Z,4.52
2023-03-22T00:16:59.295Z,4.38
2023-03-22T00:22:00.236Z,4.37
2023-03-22T00:26:59.964Z,4.26
2023-03-22T00:31:59.128Z,4.16
2023-03-22T00:36:59.072Z,4.16
2023-03-22T00:41:59.382Z,4.20
2023-03-22T00:46:59.216Z,4.20
2023-03-22T00:51:59.160Z,4.12
2023-03-22T00:53:35.401Z,4.06
2023-03-22T00:56:59.045Z,4.06
2023-03-22T01:01:58.981Z,3.95
2023-03-22T01:07:01.015Z,3.86
2023-03-22T01:12:00.915Z,3.79
2023-03-22T01:16:59.347Z,3.76
2023-03-22T01:21:59.400Z,3.70
2023-03-22T01:26:58.977Z,3.65
2023-03-22T01:31:58.940Z,3.58
2023-03-22T01:36:59.323Z,3.51
2023-03-22T01:42:01.235Z,3.45
2023-03-22T01:46:58.896Z,3.38
2023-03-22T01:52:03.020Z,3.24
2023-03-22T01:56:59.549Z,3.20
2023-03-22T02:01:59.387Z,3.10
2023-03-22T02:07:08.531Z,3.07
2023-03-22T02:12:12.335Z,2.97
2023-03-22T02:17:11.783Z,2.95
2023-03-22T02:22:20.905Z,2.83
2023-03-22T02:27:18.673Z,2.74
2023-03-22T02:32:18.718Z,2.71
2023-03-22T02:37:11.689Z,2.55
2023-03-22T02:42:15.665Z,2.45
2023-03-22T02:47:03.434Z,2.41
2023-03-22T02:52:02.809Z,2.39
2023-03-22T02:57:04.337Z,2.31
2023-03-22T03:02:02.684Z,2.33
2023-03-22T03:07:04.134Z,2.35
2023-03-22T03:11:59.070Z,2.27
2023-03-22T03:17:09.704Z,2.23
2023-03-22T03:22:12.100Z,2.20
2023-03-22T03:27:04.001Z,2.06
2023-03-22T03:32:05.740Z,2.04
2023-03-22T03:37:03.995Z,2.03
2023-03-22T03:42:01.682Z,2.02
2023-03-22T03:44:55.181Z,2.01
2023-03-22T03:46:58.955Z,2.01
2023-03-22T03:51:59.423Z,2.03
2023-03-22T03:57:01.655Z,1.97
2023-03-22T04:01:59.446Z,1.94
2023-03-22T04:07:01.347Z,1.99
2023-03-22T04:11:59.701Z,1.93
2023-03-22T04:16:58.805Z,1.90
2023-03-22T04:21:59.386Z,1.93
2023-03-22T04:26:58.745Z,1.83
2023-03-22T04:31:58.808Z,1.84
2023-03-22T04:37:01.619Z,1.85
2023-03-22T04:41:58.816Z,1.87
2023-03-22T04:46:58.789Z,1.80
2023-03-22T04:52:00.298Z,1.84
2023-03-22T04:57:00.016Z,1.91
2023-03-22T05:01:59.062Z,1.82
2023-03-22T05:06:59.091Z,1.89
2023-03-22T05:11:58.918Z,1.90
2023-03-22T05:16:58.847Z,1.97
2023-03-22T05:20:53.702Z,1.93
2023-03-22T05:22:01.052Z,1.93
2023-03-22T05:27:00.040Z,2.06
2023-03-22T05:31:59.247Z,2.14
2023-03-22T05:36:59.886Z,2.32
2023-03-22T05:41:58.687Z,2.57
2023-03-22T05:46:59.193Z,2.75
2023-03-22T05:51:58.723Z,2.99
2023-03-22T05:55:49.264Z,3.07
2023-03-22T05:56:58.665Z,3.07
2023-03-22T06:01:59.225Z,3.41
2023-03-22T06:06:58.760Z,3.66
2023-03-22T06:11:58.696Z,3.74
2023-03-22T06:16:58.987Z,4.01
2023-03-22T06:21:58.763Z,4.55
2023-03-22T06:26:58.819Z,4.96
2023-03-22T06:31:59.647Z,5.51
2023-03-22T06:36:58.764Z,5.69
2023-03-22T06:38:32.458Z,6.06
2023-03-22T06:41:58.750Z,6.06
2023-03-22T06:46:58.906Z,6.73
2023-03-22T06:51:58.705Z,7.46
2023-03-22T06:56:58.750Z,8.10
2023-03-22T07:01:59.207Z,8.61
2023-03-22T07:06:58.628Z,9.00
2023-03-22T07:11:58.727Z,9.46
2023-03-22T07:16:59.251Z,9.97
2023-03-22T07:21:58.598Z,10.63
2023-03-22T07:26:58.613Z,11.36
2023-03-22T07:31:59.309Z,11.80
2023-03-22T07:36:58.612Z,11.97
2023-03-22T07:41:58.773Z,13.92
2023-03-22T07:47:08.640Z,16.32
2023-03-22T07:51:58.733Z,19.55
2023-03-22T07:56:58.798Z,18.11
2023-03-22T08:01:59.147Z,17.50
2023-03-22T08:06:59.115Z,17.05
2023-03-22T08:11:58.582Z,17.15
2023-03-22T08:16:58.836Z,16.56
2023-03-22T08:21:58.688Z,16.79
2023-03-22T08:26:58.814Z,18.00
2023-03-22T08:32:01.347Z,19.05
2023-03-22T08:36:58.607Z,19.62
2023-03-22T08:41:59.258Z,18.55
2023-03-22T08:46:58.818Z,17.05
2023-03-22T08:51:58.684Z,16.23
2023-03-22T08:56:59.009Z,15.78
2023-03-22T09:01:59.027Z,15.51
2023-03-22T09:06:58.746Z,15.38
2023-03-22T09:11:58.719Z,14.59
2023-03-22T09:16:58.926Z,14.15
2023-03-22T09:21:58.553Z,13.57
2023-03-22T09:26:58.693Z,13.04
2023-03-22T09:31:58.809Z,12.72
2023-03-22T09:37:01.293Z,12.64
2023-03-22T09:42:01.985Z,12.58
2023-03-22T09:47:01.199Z,12.40
2023-03-22T09:51:58.803Z,12.24
2023-03-22T09:57:03.324Z,12.17
2023-03-22T10:02:01.846Z,12.33
2023-03-22T10:07:06.115Z,12.57
2023-03-22T10:10:16.852Z,12.60
2023-03-22T10:12:04.442Z,12.60
2023-03-22T10:17:04.802Z,12.51
2023-03-22T10:22:01.552Z,12.52
2023-03-22T10:26:58.741Z,12.26
2023-03-22T10:32:12.873Z,12.18
2023-03-22T10:37:03.102Z,12.09
2023-03-22T10:42:02.407Z,12.04
2023-03-22T10:47:06.259Z,12.03
2023-03-22T10:52:02.896Z,12.01
2023-03-22T10:56:58.573Z,12.12
2023-03-22T11:02:01.040Z,12.21
2023-03-22T11:06:58.693Z,12.46
2023-03-22T11:11:59.986Z,12.51
2023-03-22T11:17:00.452Z,12.58
2023-03-22T11:21:59.472Z,12.57
2023-03-22T11:27:04.623Z,12.37
2023-03-22T11:31:59.679Z,12.47
2023-03-22T11:36:59.937Z,12.46
2023-03-22T11:42:02.861Z,12.43
2023-03-22T11:47:01.101Z,12.39
2023-03-22T11:52:07.749Z,12.51
2023-03-22T11:57:03.231Z,12.62
2023-03-22T12:02:05.690Z,12.76
2023-03-22T12:07:02.774Z,13.15
2023-03-22T12:12:01.350Z,13.62
2023-03-22T12:17:04.551Z,14.01
2023-03-22T12:21:58.790Z,14.44
2023-03-22T12:27:04.151Z,14.80
2023-03-22T12:32:02.458Z,14.37
2023-03-22T12:37:02.461Z,14.43
2023-03-22T12:42:02.987Z,14.31
2023-03-22T12:47:05.425Z,14.53
2023-03-22T12:52:10.743Z,14.30
2023-03-22T12:56:58.504Z,14.20
2023-03-22T13:02:05.363Z,14.20
2023-03-22T13:07:09.189Z,14.30
2023-03-22T13:12:18.367Z,14.41
2023-03-22T13:16:59.663Z,14.69
2023-03-22T13:22:18.323Z,14.79
2023-03-22T13:26:58.447Z,15.33
2023-03-22T13:32:01.013Z,15.78
2023-03-22T13:37:08.684Z,15.69
2023-03-22T13:42:06.283Z,15.71
2023-03-22T13:47:00.960Z,15.60
2023-03-22T13:52:01.110Z,15.13
2023-03-22T13:57:00.447Z,14.62
2023-03-22T14:02:03.793Z,14.45
2023-03-22T14:07:06.065Z,14.10
2023-03-22T14:12:04.490Z,13.94
2023-03-22T14:17:03.964Z,13.76
2023-03-22T14:57:00.564Z,13.42
2023-03-22T15:02:05.361Z,13.33
2023-03-22T15:07:01.150Z,13.20
2023-03-22T15:12:01.026Z,13.15
2023-03-22T15:16:59.918Z,13.10
2023-03-22T15:22:03.101Z,13.11
2023-03-22T15:27:01.045Z,13.13
2023-03-22T15:32:01.653Z,13.15
2023-03-22T15:37:00.678Z,13.03
2023-03-22T15:42:11.132Z,13.03
2023-03-22T15:47:00.295Z,12.97
2023-03-22T15:52:08.624Z,12.95
2023-03-22T15:57:08.482Z,12.90
2023-03-22T16:02:00.293Z,12.86
2023-03-22T16:06:58.354Z,12.75
2023-03-22T16:11:58.717Z,12.76
2023-03-22T16:16:58.453Z,12.73
2023-03-22T16:21:58.367Z,12.67
2023-03-22T16:26:58.606Z,12.64
2023-03-22T16:31:58.251Z,12.59
2023-03-22T16:36:58.303Z,12.55
2023-03-22T16:41:58.612Z,12.46
2023-03-22T16:46:59.386Z,12.38
2023-03-22T16:51:58.238Z,12.38
2023-03-22T16:56:58.847Z,12.35
2023-03-22T17:01:58.300Z,12.31
2023-03-22T17:06:58.233Z,12.24
2023-03-22T17:11:58.804Z,12.12
2023-03-22T17:16:58.233Z,12.04
2023-03-22T17:21:58.838Z,11.98
2023-03-22T17:26:58.968Z,11.87
2023-03-22T17:32:04.182Z,11.81
2023-03-22T17:36:58.814Z,11.71
2023-03-22T17:41:58.723Z,11.63
2023-03-22T17:51:58.578Z,11.58
2023-03-22T17:57:32.931Z,11.53
2023-03-22T18:01:59.745Z,11.51
2023-03-22T18:06:58.188Z,11.50
2023-03-22T18:11:58.547Z,11.46
2023-03-22T18:16:58.323Z,11.43
2023-03-22T18:21:58.379Z,11.44
2023-03-22T18:32:06.047Z,11.39
2023-03-22T18:36:59.140Z,11.32
2023-03-22T18:42:08.640Z,11.30
2023-03-22T18:46:58.437Z,11.25
2023-03-22T18:52:36.081Z,11.19
2023-03-22T18:56:59.408Z,11.17
2023-03-22T19:02:09.965Z,11.14
2023-03-22T19:07:00.911Z,11.14
2023-03-22T19:11:58.543Z,11.13
2023-03-22T19:16:58.215Z,11.15
2023-03-22T19:21:58.226Z,11.14
2023-03-22T19:27:16.223Z,11.13
2023-03-22T19:31:58.864Z,11.13
2023-03-22T19:36:58.373Z,11.15
2023-03-22T19:42:06.534Z,11.11
2023-03-22T19:51:59.139Z,11.06
2023-03-22T19:56:58.740Z,11.04
2023-03-22T20:01:59.201Z,11.00
2023-03-22T20:06:58.628Z,10.99
2023-03-22T20:11:58.644Z,10.96
2023-03-22T20:17:05.547Z,10.98
2023-03-22T20:21:58.238Z,10.98
2023-03-22T20:26:58.309Z,10.95
2023-03-22T20:31:58.317Z,10.91
2023-03-22T20:36:58.251Z,10.86
2023-03-22T20:42:02.254Z,10.83
2023-03-22T20:46:36.310Z,10.82
2023-03-22T20:46:58.077Z,10.82
2023-03-22T20:51:58.292Z,10.77
2023-03-22T20:56:58.754Z,10.75
2023-03-22T21:01:58.276Z,10.69
2023-03-22T21:06:58.108Z,10.64
2023-03-22T21:11:58.370Z,10.58
2023-03-22T21:16:58.096Z,10.55
2023-03-22T21:22:04.925Z,10.52
2023-03-22T21:26:58.313Z,10.45
2023-03-22T21:31:58.070Z,10.38
2023-03-22T21:36:58.362Z,10.31
2023-03-22T21:37:08.740Z,10.31
2023-03-22T21:42:01.249Z,10.28
2023-03-22T21:46:58.920Z,10.23
2023-03-22T21:52:02.357Z,10.21
2023-03-22T21:56:58.970Z,10.14
2023-03-22T22:01:58.394Z,10.11
2023-03-22T22:07:00.450Z,10.09
2023-03-22T22:11:58.152Z,10.02
2023-03-22T22:16:58.416Z,9.95
2023-03-22T22:21:58.138Z,9.94
2023-03-22T22:26:58.068Z,9.91
2023-03-22T22:31:58.716Z,9.87
2023-03-22T22:36:58.009Z,9.80
2023-03-22T22:39:14.249Z,9.80
2023-03-22T22:41:59.280Z,9.80
2023-03-22T22:46:58.321Z,9.78
2023-03-22T22:51:58.104Z,9.78
2023-03-22T22:56:58.177Z,9.75
2023-03-22T23:01:58.446Z,9.70
2023-03-22T23:06:57.991Z,9.68
2023-03-22T23:11:58.206Z,9.64
2023-03-22T23:16:58.479Z,9.62
2023-03-22T23:22:02.248Z,9.60
2023-03-22T23:26:59.576Z,9.61
2023-03-22T23:32:00.674Z,9.61
2023-03-22T23:36:57.991Z,9.59
2023-03-22T23:41:58.100Z,9.59
2023-03-22T23:46:58.254Z,9.57
2023-03-22T23:51:58.158Z,9.53
2023-03-22T23:56:58.151Z,9.45
